sensor_id;sensor_type;location;lat;lon;timestamp;temperature;humidity
23769;DHT22;12064;50.890;5.424;2022-08-02T00:06:22;28.10;66.30
23769;DHT22;12064;50.890;5.424;2022-08-02T00:15:16;28.20;66.20
23769;DHT22;12064;50.890;5.424;2022-08-02T00:24:09;28.20;66.30
23769;DHT22;12064;50.890;5.424;2022-08-02T00:33:03;28.10;66.50
23769;DHT22;12064;50.890;5.424;2022-08-02T00:41:55;28.20;66.30
23769;DHT22;12064;50.890;5.424;2022-08-02T00:50:45;28.10;66.50
23769;DHT22;12064;50.890;5.424;2022-08-02T00:59:36;28.10;66.40
23769;DHT22;12064;50.890;5.424;2022-08-02T01:08:27;28.10;66.40
23769;DHT22;12064;50.890;5.424;2022-08-02T01:27:03;28.00;66.30
23769;DHT22;12064;50.890;5.424;2022-08-02T01:36:00;27.80;67.80
23769;DHT22;12064;50.890;5.424;2022-08-02T01:44:56;28.00;66.40
23769;DHT22;12064;50.890;5.424;2022-08-02T01:53:49;27.90;66.70
23769;DHT22;12064;50.890;5.424;2022-08-02T02:02:42;27.80;66.70
23769;DHT22;12064;50.890;5.424;2022-08-02T02:11:34;27.90;66.80
23769;DHT22;12064;50.890;5.424;2022-08-02T02:20:42;27.90;66.70
23769;DHT22;12064;50.890;5.424;2022-08-02T02:29:33;27.80;66.90
23769;DHT22;12064;50.890;5.424;2022-08-02T02:38:30;27.90;66.50
23769;DHT22;12064;50.890;5.424;2022-08-02T02:47:21;27.80;66.80
23769;DHT22;12064;50.890;5.424;2022-08-02T02:56:39;27.80;66.60
23769;DHT22;12064;50.890;5.424;2022-08-02T03:05:31;27.70;66.60
23769;DHT22;12064;50.890;5.424;2022-08-02T03:14:22;27.80;66.60
23769;DHT22;12064;50.890;5.424;2022-08-02T03:23:15;27.70;66.30
23769;DHT22;12064;50.890;5.424;2022-08-02T03:32:06;27.70;66.60
23769;DHT22;12064;50.890;5.424;2022-08-02T03:40:58;27.70;66.60
23769;DHT22;12064;50.890;5.424;2022-08-02T03:49:58;27.60;66.50
23769;DHT22;12064;50.890;5.424;2022-08-02T03:59:04;27.60;66.40
23769;DHT22;12064;50.890;5.424;2022-08-02T04:07:58;27.50;66.70
23769;DHT22;12064;50.890;5.424;2022-08-02T04:17:05;27.70;66.70
23769;DHT22;12064;50.890;5.424;2022-08-02T04:25:57;27.40;66.70
23769;DHT22;12064;50.890;5.424;2022-08-02T04:34:48;27.50;66.70
23769;DHT22;12064;50.890;5.424;2022-08-02T04:43:39;27.60;66.50
23769;DHT22;12064;50.890;5.424;2022-08-02T04:52:30;27.60;66.90
23769;DHT22;12064;50.890;5.424;2022-08-02T05:01:23;27.50;67.00
23769;DHT22;12064;50.890;5.424;2022-08-02T05:10:14;27.70;66.80
23769;DHT22;12064;50.890;5.424;2022-08-02T05:19:05;27.70;67.30
23769;DHT22;12064;50.890;5.424;2022-08-02T05:27:55;27.60;68.50
23769;DHT22;12064;50.890;5.424;2022-08-02T05:36:46;27.50;69.10
23769;DHT22;12064;50.890;5.424;2022-08-02T05:45:37;27.60;69.00
23769;DHT22;12064;50.890;5.424;2022-08-02T05:54:39;27.90;67.60
23769;DHT22;12064;50.890;5.424;2022-08-02T06:03:39;28.00;67.10
23769;DHT22;12064;50.890;5.424;2022-08-02T06:13:03;28.20;66.60
23769;DHT22;12064;50.890;5.424;2022-08-02T06:21:55;28.20;66.60
23769;DHT22;12064;50.890;5.424;2022-08-02T06:30:45;28.40;66.10
23769;DHT22;12064;50.890;5.424;2022-08-02T06:39:48;28.40;66.10
23769;DHT22;12064;50.890;5.424;2022-08-02T06:48:40;28.40;66.30
23769;DHT22;12064;50.890;5.424;2022-08-02T06:57:31;28.60;65.70
23769;DHT22;12064;50.890;5.424;2022-08-02T07:06:24;28.70;65.70
23769;DHT22;12064;50.890;5.424;2022-08-02T07:15:15;28.70;65.30
23769;DHT22;12064;50.890;5.424;2022-08-02T07:24:05;28.80;65.30
23769;DHT22;12064;50.890;5.424;2022-08-02T07:32:56;28.80;65.40
23769;DHT22;12064;50.890;5.424;2022-08-02T07:41:51;28.70;65.20
23769;DHT22;12064;50.890;5.424;2022-08-02T07:50:42;28.80;65.10
23769;DHT22;12064;50.890;5.424;2022-08-02T07:59:36;28.80;65.10
23769;DHT22;12064;50.890;5.424;2022-08-02T08:08:26;28.80;65.20
23769;DHT22;12064;50.890;5.424;2022-08-02T08:17:17;28.90;65.30
23769;DHT22;12064;50.890;5.424;2022-08-02T08:26:08;28.90;65.30
23769;DHT22;12064;50.890;5.424;2022-08-02T08:34:59;28.90;65.30
23769;DHT22;12064;50.890;5.424;2022-08-02T08:43:53;28.90;65.30
23769;DHT22;12064;50.890;5.424;2022-08-02T08:52:48;28.90;65.30
23769;DHT22;12064;50.890;5.424;2022-08-02T09:01:46;28.80;65.50
23769;DHT22;12064;50.890;5.424;2022-08-02T09:10:46;28.80;65.70
23769;DHT22;12064;50.890;5.424;2022-08-02T09:19:39;28.80;65.70
23769;DHT22;12064;50.890;5.424;2022-08-02T09:28:32;28.90;65.70
23769;DHT22;12064;50.890;5.424;2022-08-02T09:37:26;28.90;65.60
23769;DHT22;12064;50.890;5.424;2022-08-02T09:46:24;28.90;65.60
23769;DHT22;12064;50.890;5.424;2022-08-02T09:55:18;28.90;65.70
23769;DHT22;12064;50.890;5.424;2022-08-02T10:04:11;29.00;66.40
23769;DHT22;12064;50.890;5.424;2022-08-02T10:13:02;28.90;65.70
23769;DHT22;12064;50.890;5.424;2022-08-02T10:22:18;28.80;65.70
23769;DHT22;12064;50.890;5.424;2022-08-02T10:31:09;28.80;65.80
23769;DHT22;12064;50.890;5.424;2022-08-02T10:40:00;29.00;65.50
23769;DHT22;12064;50.890;5.424;2022-08-02T10:49:27;28.90;65.60
23769;DHT22;12064;50.890;5.424;2022-08-02T10:58:19;28.70;66.10
23769;DHT22;12064;50.890;5.424;2022-08-02T11:07:19;29.00;65.60
23769;DHT22;12064;50.890;5.424;2022-08-02T11:16:10;28.90;65.60
23769;DHT22;12064;50.890;5.424;2022-08-02T11:34:15;28.80;66.00
23769;DHT22;12064;50.890;5.424;2022-08-02T11:43:19;29.00;65.80
23769;DHT22;12064;50.890;5.424;2022-08-02T11:52:12;29.00;65.70
23769;DHT22;12064;50.890;5.424;2022-08-02T12:01:04;29.10;65.70
23769;DHT22;12064;50.890;5.424;2022-08-02T12:09:59;28.90;66.10
23769;DHT22;12064;50.890;5.424;2022-08-02T12:18:50;29.00;65.90
23769;DHT22;12064;50.890;5.424;2022-08-02T12:28:19;29.10;65.90
23769;DHT22;12064;50.890;5.424;2022-08-02T12:37:11;29.00;65.90
23769;DHT22;12064;50.890;5.424;2022-08-02T12:46:02;29.20;65.50
23769;DHT22;12064;50.890;5.424;2022-08-02T12:54:53;29.20;65.50
23769;DHT22;12064;50.890;5.424;2022-08-02T13:03:43;29.30;65.30
23769;DHT22;12064;50.890;5.424;2022-08-02T13:12:34;29.30;65.20
23769;DHT22;12064;50.890;5.424;2022-08-02T13:21:26;29.30;65.60
23769;DHT22;12064;50.890;5.424;2022-08-02T13:30:18;29.30;65.50
23769;DHT22;12064;50.890;5.424;2022-08-02T13:39:10;29.30;65.40
23769;DHT22;12064;50.890;5.424;2022-08-02T13:48:03;29.40;65.40
23769;DHT22;12064;50.890;5.424;2022-08-02T13:56:54;29.30;65.30
23769;DHT22;12064;50.890;5.424;2022-08-02T14:05:44;29.40;65.50
23769;DHT22;12064;50.890;5.424;2022-08-02T14:14:38;29.40;65.50
23769;DHT22;12064;50.890;5.424;2022-08-02T14:23:32;29.40;65.70
23769;DHT22;12064;50.890;5.424;2022-08-02T14:32:23;29.30;66.60
23769;DHT22;12064;50.890;5.424;2022-08-02T14:41:13;29.40;65.80
23769;DHT22;12064;50.890;5.424;2022-08-02T14:50:05;29.40;65.50
23769;DHT22;12064;50.890;5.424;2022-08-02T14:58:57;29.40;65.60
23769;DHT22;12064;50.890;5.424;2022-08-02T15:07:48;29.40;65.50
23769;DHT22;12064;50.890;5.424;2022-08-02T15:16:38;29.40;65.80
23769;DHT22;12064;50.890;5.424;2022-08-02T15:25:30;29.50;65.80
23769;DHT22;12064;50.890;5.424;2022-08-02T15:34:21;29.40;65.90
23769;DHT22;12064;50.890;5.424;2022-08-02T15:43:11;29.40;65.80
23769;DHT22;12064;50.890;5.424;2022-08-02T15:52:03;29.50;65.90
23769;DHT22;12064;50.890;5.424;2022-08-02T16:00:54;29.50;65.60
23769;DHT22;12064;50.890;5.424;2022-08-02T16:09:44;29.60;65.90
23769;DHT22;12064;50.890;5.424;2022-08-02T16:18:54;29.50;66.10
23769;DHT22;12064;50.890;5.424;2022-08-02T16:27:45;29.40;66.50
23769;DHT22;12064;50.890;5.424;2022-08-02T16:36:36;29.60;66.00
23769;DHT22;12064;50.890;5.424;2022-08-02T16:45:27;29.60;66.30
23769;DHT22;12064;50.890;5.424;2022-08-02T16:54:22;29.60;66.40
23769;DHT22;12064;50.890;5.424;2022-08-02T17:03:19;29.60;66.40
23769;DHT22;12064;50.890;5.424;2022-08-02T17:12:09;29.60;66.70
23769;DHT22;12064;50.890;5.424;2022-08-02T17:21:00;29.70;66.60
23769;DHT22;12064;50.890;5.424;2022-08-02T17:30:22;29.80;66.60
23769;DHT22;12064;50.890;5.424;2022-08-02T17:39:13;29.60;67.00
23769;DHT22;12064;50.890;5.424;2022-08-02T17:48:04;29.80;66.60
23769;DHT22;12064;50.890;5.424;2022-08-02T17:57:00;29.70;66.80
23769;DHT22;12064;50.890;5.424;2022-08-02T18:05:51;29.70;66.80
23769;DHT22;12064;50.890;5.424;2022-08-02T18:14:42;29.80;66.90
23769;DHT22;12064;50.890;5.424;2022-08-02T18:23:34;29.90;66.90
23769;DHT22;12064;50.890;5.424;2022-08-02T18:32:24;29.90;66.80
23769;DHT22;12064;50.890;5.424;2022-08-02T18:41:15;29.90;66.60
23769;DHT22;12064;50.890;5.424;2022-08-02T18:50:06;29.90;66.70
23769;DHT22;12064;50.890;5.424;2022-08-02T18:58:57;29.90;66.80
23769;DHT22;12064;50.890;5.424;2022-08-02T19:07:50;29.90;66.80
23769;DHT22;12064;50.890;5.424;2022-08-02T19:16:42;29.80;66.90
23769;DHT22;12064;50.890;5.424;2022-08-02T19:25:32;29.60;68.70
23769;DHT22;12064;50.890;5.424;2022-08-02T19:34:24;29.80;69.50
23769;DHT22;12064;50.890;5.424;2022-08-02T19:43:28;29.90;68.30
23769;DHT22;12064;50.890;5.424;2022-08-02T19:52:22;29.70;68.40
23769;DHT22;12064;50.890;5.424;2022-08-02T20:01:13;29.80;68.40
23769;DHT22;12064;50.890;5.424;2022-08-02T20:10:04;29.80;68.00
23769;DHT22;12064;50.890;5.424;2022-08-02T20:19:31;29.90;67.80
23769;DHT22;12064;50.890;5.424;2022-08-02T20:28:23;29.70;67.90
23769;DHT22;12064;50.890;5.424;2022-08-02T20:37:14;29.80;68.20
23769;DHT22;12064;50.890;5.424;2022-08-02T20:46:05;30.00;67.80
23769;DHT22;12064;50.890;5.424;2022-08-02T20:54:56;30.10;68.10
23769;DHT22;12064;50.890;5.424;2022-08-02T21:03:54;29.90;68.60
23769;DHT22;12064;50.890;5.424;2022-08-02T21:13:03;29.70;69.00
23769;DHT22;12064;50.890;5.424;2022-08-02T21:22:00;29.70;69.60
23769;DHT22;12064;50.890;5.424;2022-08-02T21:30:53;29.90;69.70
23769;DHT22;12064;50.890;5.424;2022-08-02T21:39:46;30.30;69.00
23769;DHT22;12064;50.890;5.424;2022-08-02T21:48:36;30.70;68.50
23769;DHT22;12064;50.890;5.424;2022-08-02T21:57:27;30.50;68.80
23769;DHT22;12064;50.890;5.424;2022-08-02T22:06:23;30.60;68.60
23769;DHT22;12064;50.890;5.424;2022-08-02T22:15:14;30.50;68.30
23769;DHT22;12064;50.890;5.424;2022-08-02T22:24:07;30.30;68.70
23769;DHT22;12064;50.890;5.424;2022-08-02T22:32:58;30.70;68.20
23769;DHT22;12064;50.890;5.424;2022-08-02T22:42:27;30.80;68.20
23769;DHT22;12064;50.890;5.424;2022-08-02T22:51:20;30.50;68.60
23769;DHT22;12064;50.890;5.424;2022-08-02T23:00:11;30.00;69.60
23769;DHT22;12064;50.890;5.424;2022-08-02T23:09:02;29.80;70.20
23769;DHT22;12064;50.890;5.424;2022-08-02T23:17:55;29.80;70.20
23769;DHT22;12064;50.890;5.424;2022-08-02T23:27:04;29.80;70.10
23769;DHT22;12064;50.890;5.424;2022-08-02T23:35:57;29.70;70.20
23769;DHT22;12064;50.890;5.424;2022-08-02T23:44:48;29.70;70.00
23769;DHT22;12064;50.890;5.424;2022-08-02T23:53:41;29.60;70.00
